createdAt,value
2018-04-15T00:00:02.423Z,10.8
2018-04-15T00:15:02.735Z,10.8
2018-04-15T00:30:03.100Z,10.7
2018-04-15T00:45:02.424Z,10.6
2018-04-15T01:00:02.754Z,10.6
2018-04-15T01:15:02.990Z,10.5
2018-04-15T01:30:02.341Z,10.4
2018-04-15T01:45:02.588Z,10.4
2018-04-15T02:00:02.819Z,10.3
2018-04-15T02:15:03.277Z,10.2
2018-04-15T02:30:02.668Z,10.2
2018-04-15T02:45:02.981Z,10.2
2018-04-15T03:00:02.325Z,10.1
2018-04-15T03:15:02.608Z,10.1
2018-04-15T03:30:02.964Z,10
2018-04-15T03:45:02.258Z,9.9
2018-04-15T04:00:02.534Z,9.9
2018-04-15T04:15:02.796Z,9.9
2018-04-15T04:30:03.143Z,9.8
2018-04-15T04:45:02.460Z,9.8
2018-04-15T05:00:02.776Z,9.7
2018-04-15T05:15:03.082Z,9.7
2018-04-15T05:30:02.496Z,9.6
2018-04-15T05:45:02.723Z,9.6
2018-04-15T06:00:03.000Z,9.6
2018-04-15T06:15:02.320Z,9.6
2018-04-15T06:30:02.942Z,9.6
2018-04-15T06:45:03.226Z,9.6
2018-04-15T07:00:02.559Z,9.6
2018-04-15T07:15:02.803Z,9.6
2018-04-15T07:30:03.190Z,9.7
2018-04-15T07:45:02.497Z,9.7
2018-04-15T08:00:02.786Z,9.8
2018-04-15T08:15:03.162Z,9.8
2018-04-15T08:30:02.578Z,9.8
2018-04-15T08:45:02.815Z,9.8
2018-04-15T09:00:03.165Z,9.8
2018-04-15T09:15:02.455Z,9.9
2018-04-15T09:30:02.927Z,9.9
2018-04-15T09:45:03.225Z,9.9
2018-04-15T10:00:02.585Z,10
2018-04-15T10:15:02.829Z,10.1
2018-04-15T10:30:03.304Z,10.1
2018-04-15T10:45:02.648Z,10.1
2018-04-15T11:00:02.961Z,10.1
2018-04-15T11:15:02.301Z,10.1
2018-04-15T11:30:02.682Z,10.1
2018-04-15T11:45:02.959Z,10.2
2018-04-15T12:00:02.280Z,10.2
2018-04-15T12:15:02.582Z,10.2
2018-04-15T12:30:02.903Z,10.4
2018-04-15T12:45:03.258Z,10.4
2018-04-15T13:00:02.577Z,10.5
2018-04-15T13:15:02.832Z,10.6
2018-04-15T13:30:04.264Z,10.6
2018-04-15T13:45:02.561Z,10.6
2018-04-15T14:00:02.874Z,10.7
2018-04-15T14:15:03.129Z,10.7
2018-04-15T14:30:02.545Z,10.8
2018-04-15T14:45:02.864Z,10.8
2018-04-15T15:00:03.164Z,10.8
2018-04-15T15:15:02.457Z,10.8
2018-04-15T15:30:02.843Z,10.8
2018-04-15T15:45:03.109Z,10.8
2018-04-15T16:00:02.424Z,10.8
2018-04-15T16:15:02.783Z,10.8
2018-04-15T16:30:03.142Z,10.8
2018-04-15T16:45:02.412Z,10.9
2018-04-15T17:00:02.672Z,10.9
2018-04-15T17:15:02.968Z,10.9
2018-04-15T17:30:02.442Z,10.9
2018-04-15T17:45:02.703Z,10.9
2018-04-15T18:00:02.908Z,10.9
2018-04-15T18:15:03.150Z,10.9
2018-04-15T18:30:02.543Z,10.9
2018-04-15T18:45:02.848Z,10.9
2018-04-15T19:00:03.091Z,10.9
2018-04-15T19:15:02.411Z,10.9
2018-04-15T19:30:02.722Z,10.9
2018-04-15T19:45:02.938Z,10.9
2018-04-15T20:00:03.222Z,10.8
2018-04-15T20:15:02.510Z,10.8
2018-04-15T20:30:02.817Z,10.8
2018-04-15T20:45:03.130Z,10.8
2018-04-15T21:00:02.478Z,10.8
2018-04-15T21:15:02.783Z,10.8
2018-04-15T21:30:03.136Z,10.8
2018-04-15T21:45:02.403Z,10.7
2018-04-15T22:00:02.641Z,10.7
2018-04-15T22:15:02.951Z,10.6
2018-04-15T22:30:02.431Z,10.6
2018-04-15T22:45:02.745Z,10.6
2018-04-15T23:00:03.015Z,10.6
2018-04-15T23:15:02.398Z,10.5
2018-04-15T23:30:02.731Z,10.5
2018-04-15T23:45:03.125Z,10.4
